Time;durP1;ratioP1;P1;durP2;ratioP2;P2;SDS_P1;SDS_P2;PMS_P1;PMS_P2;Temp;Humidity;BMP_temperature;BMP_pressure;BME280_temperature;BME280_humidity;BME280_pressure;Samples;Min_cycle;Max_cycle;Signal;HPM_P1;HPM_P2
2024/04/06 00:00:16;;;;;;;3.10;1.67;;;17.20;99.90;;;;;;5094904;28;20195;-59
2024/04/06 00:02:44;;;;;;;3.75;2.00;;;17.20;99.90;;;;;;5094546;28;20310;-59
2024/04/06 00:05:12;;;;;;;4.30;2.00;;;17.20;99.90;;;;;;5094970;28;20200;-57
2024/04/06 00:07:40;;;;;;;4.05;1.67;;;17.20;99.90;;;;;;5094631;28;20283;-56
2024/04/06 00:10:06;;;;;;;3.88;1.73;;;17.20;99.90;;;;;;5094702;28;20678;-56
2024/04/06 00:12:33;;;;;;;2.58;1.60;;;17.20;99.90;;;;;;5094612;28;20248;-59
2024/04/06 00:14:59;;;;;;;2.40;1.65;;;17.10;99.90;;;;;;5094709;28;20215;-56
2024/04/06 00:17:27;;;;;;;5.95;1.65;;;17.20;99.90;;;;;;5094741;28;20196;-57
2024/04/06 00:19:52;;;;;;;4.82;1.80;;;17.20;99.90;;;;;;5094715;28;20283;-58
2024/04/06 00:22:19;;;;;;;5.00;1.70;;;17.30;99.90;;;;;;5094409;28;20269;-56
2024/04/06 00:24:46;;;;;;;5.00;1.85;;;17.20;99.90;;;;;;5094349;28;20212;-57
2024/04/06 00:27:13;;;;;;;3.15;1.65;;;17.20;99.90;;;;;;5094739;28;20200;-56
2024/04/06 00:29:38;;;;;;;3.10;1.55;;;17.10;99.90;;;;;;5093973;28;20584;-59
2024/04/06 00:32:06;;;;;;;2.80;1.50;;;17.10;99.90;;;;;;5094329;28;20211;-57
2024/04/06 00:34:32;;;;;;;3.85;1.48;;;16.90;99.90;;;;;;5094141;28;20228;-56
2024/04/06 00:37:01;;;;;;;2.45;1.52;;;16.90;99.90;;;;;;5093801;28;20196;-56
2024/04/06 00:39:27;;;;;;;3.88;1.60;;;16.80;99.90;;;;;;5093995;28;20302;-58
2024/04/06 00:41:55;;;;;;;1.67;1.30;;;16.80;99.90;;;;;;5093871;28;20281;-57
2024/04/06 00:44:22;;;;;;;4.72;1.42;;;16.90;99.90;;;;;;5094275;28;20245;-56
2024/04/06 00:46:50;;;;;;;2.40;1.35;;;16.90;99.90;;;;;;5094160;28;20207;-56
2024/04/06 00:49:16;;;;;;;2.13;1.50;;;16.90;99.90;;;;;;5093875;28;20291;-56
2024/04/06 00:51:42;;;;;;;4.70;1.50;;;16.90;99.90;;;;;;5093610;28;20311;-56
2024/04/06 00:54:08;;;;;;;2.78;1.30;;;16.90;99.90;;;;;;5094295;28;20227;-56
2024/04/06 00:56:35;;;;;;;5.53;2.70;;;16.90;99.90;;;;;;5093873;28;20662;-57
2024/04/06 00:59:02;;;;;;;4.90;2.75;;;17.00;99.90;;;;;;5093842;28;20200;-56
2024/04/06 01:01:29;;;;;;;6.25;3.17;;;17.00;99.90;;;;;;5093774;28;20231;-56
2024/04/06 01:03:55;;;;;;;5.22;2.20;;;17.00;99.90;;;;;;5093755;28;20196;-57
2024/04/06 01:06:21;;;;;;;3.03;1.92;;;16.90;99.90;;;;;;5093540;28;20203;-56
2024/04/06 01:08:47;;;;;;;2.58;1.80;;;16.90;99.90;;;;;;5092715;28;20207;-60
2024/04/06 01:11:14;;;;;;;4.53;1.80;;;16.90;99.90;;;;;;5093689;28;20235;-56
2024/04/06 01:13:39;;;;;;;4.60;1.67;;;16.80;99.90;;;;;;5093531;28;20674;-57
2024/04/06 01:16:08;;;;;;;1.67;1.42;;;16.70;99.90;;;;;;5093464;28;20215;-59
2024/04/06 01:18:33;;;;;;;4.47;1.60;;;16.60;99.90;;;;;;5093186;28;20258;-58
2024/04/06 01:21:03;;;;;;;22.73;20.35;;;16.50;99.90;;;;;;5084911;28;20687;-56
2024/04/06 01:23:29;;;;;;;5.28;2.92;;;16.30;99.90;;;;;;5093858;28;20559;-56
2024/04/06 01:25:57;;;;;;;6.60;1.80;;;16.20;99.90;;;;;;5093265;28;20197;-55
2024/04/06 01:28:22;;;;;;;2.85;1.85;;;16.10;99.90;;;;;;5093133;28;20204;-55
2024/04/06 01:30:49;;;;;;;3.80;2.00;;;16.00;99.90;;;;;;5093090;28;20236;-57
2024/04/06 01:33:15;;;;;;;2.72;2.35;;;15.90;99.90;;;;;;5093009;28;20209;-55
2024/04/06 01:35:41;;;;;;;2.75;2.00;;;15.80;99.90;;;;;;5093167;28;20223;-55
2024/04/06 01:38:07;;;;;;;1.95;1.75;;;15.70;99.90;;;;;;5092981;28;20204;-55
2024/04/06 01:40:34;;;;;;;4.55;1.58;;;15.60;99.90;;;;;;5093104;28;20199;-55
2024/04/06 01:43:01;;;;;;;1.67;1.40;;;15.60;99.90;;;;;;5092987;28;20629;-55
2024/04/06 01:45:28;;;;;;;3.13;1.53;;;15.40;99.90;;;;;;5092921;28;20674;-56
2024/04/06 01:47:53;;;;;;;3.00;1.40;;;15.20;99.90;;;;;;5092469;28;20269;-55
2024/04/06 01:50:20;;;;;;;2.65;1.50;;;15.10;99.90;;;;;;5093056;28;20204;-57
2024/04/06 01:52:46;;;;;;;3.30;1.30;;;15.10;99.90;;;;;;5092543;28;20297;-56
2024/04/06 01:55:12;;;;;;;2.03;1.50;;;15.00;99.90;;;;;;5092720;28;20639;-56
2024/04/06 01:57:38;;;;;;;3.25;1.35;;;14.90;99.90;;;;;;5092629;28;20253;-58
2024/04/06 02:00:08;;;;;;;3.03;1.60;;;14.90;99.90;;;;;;5092443;28;20200;-56
2024/04/06 02:02:34;;;;;;;4.20;1.60;;;14.80;99.90;;;;;;5092314;28;20577;-56
2024/04/06 02:05:00;;;;;;;2.75;1.63;;;14.70;99.90;;;;;;5092533;28;20199;-57
2024/04/06 02:07:26;;;;;;;2.57;1.30;;;14.60;99.90;;;;;;5092602;28;20502;-56
2024/04/06 02:09:53;;;;;;;2.77;1.57;;;14.60;99.90;;;;;;5092159;28;20199;-56
2024/04/06 02:12:18;;;;;;;2.27;1.30;;;14.60;99.90;;;;;;5092560;28;20228;-59
2024/04/06 02:14:45;;;;;;;5.63;1.97;;;14.50;99.90;;;;;;5091741;28;20344;-56
2024/04/06 02:17:12;;;;;;;4.10;1.13;;;14.40;99.90;;;;;;5092257;28;20212;-58
2024/04/06 02:19:39;;;;;;;3.20;1.50;;;14.30;99.90;;;;;;5091907;28;20670;-55
2024/04/06 02:22:04;;;;;;;1.42;1.23;;;14.30;99.90;;;;;;5092351;28;20786;-55
2024/04/06 02:24:31;;;;;;;2.13;1.43;;;14.30;99.90;;;;;;5092245;28;20200;-56
2024/04/06 02:26:57;;;;;;;1.55;1.23;;;14.20;99.90;;;;;;5091920;28;20287;-57
2024/04/06 02:29:24;;;;;;;1.50;1.37;;;14.10;99.90;;;;;;5091813;28;20279;-58
2024/04/06 02:31:52;;;;;;;3.40;1.63;;;14.00;99.90;;;;;;5091994;28;20277;-57
2024/04/06 02:34:20;;;;;;;3.93;1.27;;;14.00;99.90;;;;;;5092003;28;20226;-57
2024/04/06 02:36:45;;;;;;;4.07;1.50;;;13.90;99.90;;;;;;5092004;28;20235;-57
2024/04/06 02:39:12;;;;;;;2.17;1.60;;;13.80;99.90;;;;;;5091788;28;20696;-57
2024/04/06 02:41:38;;;;;;;3.00;1.60;;;13.80;99.90;;;;;;5091781;28;20305;-56
2024/04/06 02:44:05;;;;;;;3.50;1.47;;;13.80;99.90;;;;;;5091751;28;20224;-57
2024/04/06 02:46:31;;;;;;;3.13;1.40;;;13.70;99.90;;;;;;5091897;28;20235;-56
2024/04/06 02:48:57;;;;;;;4.57;1.40;;;13.70;99.90;;;;;;5091475;28;20200;-56
2024/04/06 02:51:25;;;;;;;3.00;1.33;;;13.60;99.90;;;;;;5091419;28;20247;-58
2024/04/06 02:53:51;;;;;;;4.00;1.63;;;13.60;99.90;;;;;;5091537;28;20226;-55
2024/04/06 02:56:17;;;;;;;2.80;1.50;;;13.60;99.90;;;;;;5091548;28;20239;-59
2024/04/06 02:58:44;;;;;;;4.20;1.50;;;13.60;99.90;;;;;;5091260;28;20685;-56
2024/04/06 03:01:09;;;;;;;3.83;1.30;;;13.60;99.90;;;;;;5091445;28;20574;-57
2024/04/06 03:03:36;;;;;;;3.63;1.30;;;13.50;99.90;;;;;;5091599;28;20249;-56
2024/04/06 03:06:02;;;;;;;3.27;1.17;;;13.60;99.90;;;;;;5091609;28;20196;-58
2024/04/06 03:08:30;;;;;;;4.53;1.53;;;13.60;99.90;;;;;;5091493;28;20208;-58
2024/04/06 03:10:56;;;;;;;2.03;1.30;;;13.70;99.90;;;;;;5091515;28;20224;-56
2024/04/06 03:13:23;;;;;;;2.63;1.40;;;13.70;99.90;;;;;;5091460;28;20206;-57
2024/04/06 03:15:49;;;;;;;2.40;1.50;;;13.80;99.90;;;;;;5091491;28;20269;-56
2024/04/06 03:18:15;;;;;;;3.53;1.33;;;13.80;99.90;;;;;;5091339;28;20196;-56
2024/04/06 03:20:42;;;;;;;1.87;1.30;;;13.80;99.90;;;;;;5091246;28;20628;-56
2024/04/06 03:23:09;;;;;;;4.20;1.60;;;13.80;99.90;;;;;;5091551;28;20283;-59
2024/04/06 03:25:36;;;;;;;2.50;1.30;;;13.90;99.90;;;;;;5091531;28;20201;-57
2024/04/06 03:28:03;;;;;;;2.20;1.53;;;13.90;99.90;;;;;;5091110;28;20305;-55
2024/04/06 03:30:28;;;;;;;2.77;1.60;;;13.90;99.90;;;;;;5091635;28;20581;-55
2024/04/06 03:32:55;;;;;;;2.07;1.40;;;13.90;99.90;;;;;;5095442;28;20200;-57
2024/04/06 03:35:21;;;;;;;3.30;1.50;;;13.80;99.90;;;;;;5095290;28;20269;-56
2024/04/06 03:37:49;;;;;;;1.70;1.40;;;13.80;99.90;;;;;;5095198;28;20203;-56
2024/04/06 03:40:16;;;;;;;2.87;1.73;;;13.80;99.90;;;;;;5095420;28;20255;-57
2024/04/06 03:42:54;;;;;;;2.13;1.43;;;13.70;99.90;;;;;;5095393;28;20224;-55
2024/04/06 03:45:20;;;;;;;2.70;1.60;;;13.60;99.90;;;;;;5095349;28;20196;-55
2024/04/06 03:47:47;;;;;;;2.83;1.60;;;13.60;99.90;;;;;;5094983;28;20688;-55
2024/04/06 03:50:14;;;;;;;4.53;2.20;;;13.50;99.90;;;;;;5095191;28;20734;-58
2024/04/06 03:52:40;;;;;;;4.07;2.60;;;13.50;99.90;;;;;;5119684;22;20721;-60
2024/04/06 03:55:07;;;;;;;4.70;2.60;;;13.30;99.90;;;;;;5094777;28;20223;-59
2024/04/06 03:57:33;;;;;;;6.13;2.90;;;13.30;99.90;;;;;;5094817;28;20554;-59
2024/04/06 04:00:02;;;;;;;3.70;2.47;;;13.30;99.90;;;;;;5094706;28;20227;-59
2024/04/06 04:02:27;;;;;;;3.00;2.23;;;13.30;99.90;;;;;;5088077;28;20220;-59
2024/04/06 04:04:54;;;;;;;5.93;2.37;;;13.20;99.90;;;;;;5084939;28;20205;-59
2024/04/06 04:07:20;;;;;;;5.03;1.70;;;13.20;99.90;;;;;;5086289;28;20200;-59
2024/04/06 04:09:46;;;;;;;8.17;1.97;;;13.10;99.90;;;;;;5085262;28;20199;-60
2024/04/06 04:12:12;;;;;;;2.53;1.63;;;13.10;99.90;;;;;;5082925;28;20232;-59
2024/04/06 04:14:39;;;;;;;6.43;1.80;;;13.00;99.90;;;;;;5082704;28;20615;-60
2024/04/06 04:17:06;;;;;;;5.43;1.80;;;12.90;99.90;;;;;;5074034;28;20689;-59
2024/04/06 04:19:32;;;;;;;2.07;1.40;;;12.90;99.90;;;;;;5082324;28;20208;-59
2024/04/06 04:21:58;;;;;;;6.73;1.70;;;12.90;99.90;;;;;;5084747;28;20262;-59
2024/04/06 04:24:25;;;;;;;5.27;1.63;;;12.90;99.90;;;;;;5085971;28;20204;-59
2024/04/06 04:26:51;;;;;;;4.17;1.67;;;12.90;99.90;;;;;;5084218;28;20295;-59
2024/04/06 04:29:17;;;;;;;5.23;1.60;;;12.90;99.90;;;;;;5082458;28;20291;-59
2024/04/06 04:31:43;;;;;;;1.90;1.50;;;12.80;99.90;;;;;;5082639;28;20651;-59
2024/04/06 04:34:11;;;;;;;3.33;1.87;;;12.80;99.90;;;;;;5085924;28;20196;-59
2024/04/06 04:36:37;;;;;;;2.33;1.53;;;12.70;99.90;;;;;;5085438;28;20216;-59
2024/04/06 04:39:04;;;;;;;2.63;1.30;;;12.70;99.90;;;;;;5082277;28;20231;-59
2024/04/06 04:41:30;;;;;;;3.30;1.50;;;12.70;99.90;;;;;;5082181;28;20248;-59
2024/04/06 04:43:56;;;;;;;3.03;1.83;;;12.70;99.90;;;;;;5083087;28;20209;-59
2024/04/06 04:46:23;;;;;;;5.47;1.80;;;12.70;99.90;;;;;;5085629;28;20258;-59
2024/04/06 04:48:52;;;;;;;2.10;1.50;;;12.60;99.90;;;;;;5084221;28;20207;-59
2024/04/06 04:51:20;;;;;;;3.57;1.80;;;12.60;99.90;;;;;;5082024;28;20262;-59
2024/04/06 04:53:47;;;;;;;2.07;1.77;;;12.60;99.90;;;;;;5082883;28;20335;-59
2024/04/06 04:56:13;;;;;;;5.10;1.80;;;12.50;99.90;;;;;;5085551;28;20261;-59
2024/04/06 04:58:40;;;;;;;2.97;1.77;;;12.50;99.90;;;;;;5085299;28;20200;-59
2024/04/06 05:01:05;;;;;;;4.63;1.93;;;12.50;99.90;;;;;;5081854;28;20247;-59
2024/04/06 05:03:32;;;;;;;3.77;1.70;;;12.40;99.90;;;;;;5081555;28;20200;-59
2024/04/06 05:05:58;;;;;;;3.57;1.50;;;12.40;99.90;;;;;;5083332;28;20590;-58
2024/04/06 05:08:26;;;;;;;2.40;1.63;;;12.40;99.90;;;;;;5084394;28;20277;-59
2024/04/06 05:10:52;;;;;;;3.20;1.50;;;12.40;99.90;;;;;;5082848;28;20207;-59
2024/04/06 05:13:19;;;;;;;12.67;2.80;;;12.40;99.90;;;;;;5081094;28;20236;-58
2024/04/06 05:15:47;;;;;;;13.53;3.37;;;12.40;99.90;;;;;;5081432;28;20630;-60
2024/04/06 05:18:14;;;;;;;4.97;1.80;;;12.50;99.90;;;;;;5084493;28;20223;-60
2024/04/06 05:20:40;;;;;;;3.00;1.50;;;12.50;99.90;;;;;;5085255;28;20578;-60
2024/04/06 05:23:06;;;;;;;5.40;1.90;;;12.60;99.90;;;;;;5081692;28;20319;-61
2024/04/06 05:25:34;;;;;;;14.13;2.77;;;12.70;99.90;;;;;;5081537;28;20200;-59
2024/04/06 05:28:00;;;;;;;12.10;2.57;;;12.80;99.90;;;;;;5083524;28;20205;-60
2024/04/06 05:30:26;;;;;;;5.10;2.00;;;12.90;99.90;;;;;;5084717;28;20204;-60
2024/04/06 05:32:52;;;;;;;8.83;1.70;;;13.00;99.90;;;;;;5082896;28;20709;-60
2024/04/06 05:35:18;;;;;;;4.30;1.70;;;13.10;99.90;;;;;;5081371;28;20250;-61
2024/04/06 05:37:45;;;;;;;6.90;1.80;;;13.20;99.90;;;;;;5080649;28;20212;-60
2024/04/06 05:40:11;;;;;;;15.63;2.60;;;13.20;99.90;;;;;;5084519;28;20201;-59
2024/04/06 05:42:39;;;;;;;9.23;2.00;;;13.30;99.90;;;;;;5084396;28;20231;-59
2024/04/06 05:45:05;;;;;;;2.43;1.80;;;13.50;99.90;;;;;;5081008;28;20649;-60
2024/04/06 05:47:31;;;;;;;4.20;2.00;;;13.70;99.90;;;;;;5080858;28;20197;-60
2024/04/06 05:49:58;;;;;;;5.00;1.60;;;14.30;99.90;;;;;;5082551;28;20292;-60
2024/04/06 05:52:24;;;;;;;2.43;1.70;;;14.90;99.90;;;;;;5084477;28;20285;-60
2024/04/06 05:54:50;;;;;;;3.47;1.47;;;15.50;99.90;;;;;;5082953;28;20205;-60
2024/04/06 05:57:16;;;;;;;2.53;1.70;;;16.20;99.90;;;;;;5080628;28;20694;-60
2024/04/06 05:59:44;;;;;;;4.22;1.52;;;16.80;99.90;;;;;;5080566;28;20269;-60
2024/04/06 06:02:10;;;;;;;4.97;1.65;;;17.40;99.90;;;;;;5072478;28;20217;-60
2024/04/06 06:04:36;;;;;;;2.53;1.50;;;18.10;99.90;;;;;;5080653;28;20200;-61
2024/04/06 06:07:03;;;;;;;6.07;1.73;;;18.60;99.90;;;;;;5083262;28;20197;-61
2024/04/06 06:09:30;;;;;;;2.50;1.63;;;19.10;99.90;;;;;;5083869;28;20236;-60
2024/04/06 06:11:56;;;;;;;19.63;2.67;;;19.70;99.90;;;;;;5082292;28;20239;-60
2024/04/06 06:14:23;;;;;;;6.10;1.67;;;20.30;99.90;;;;;;5080735;28;20193;-60
2024/04/06 06:16:50;;;;;;;21.27;3.10;;;20.90;99.90;;;;;;5081103;28;20598;-61
2024/04/06 06:19:16;;;;;;;6.82;1.92;;;21.80;99.90;;;;;;5083692;28;20201;-61
2024/04/06 06:21:42;;;;;;;2.55;1.60;;;22.70;99.90;;;;;;5083875;28;20224;-61
2024/04/06 06:24:09;;;;;;;3.08;1.30;;;23.70;99.90;;;;;;5080158;28;20681;-61
2024/04/06 06:26:35;;;;;;;4.90;1.75;;;24.80;99.90;;;;;;5080285;28;20204;-61
2024/04/06 06:29:01;;;;;;;2.78;1.55;;;25.70;99.10;;;;;;5082242;28;20208;-61
2024/04/06 06:31:27;;;;;;;4.65;1.70;;;26.40;96.90;;;;;;5083698;28;20231;-61
2024/04/06 06:33:56;;;;;;;3.65;2.03;;;26.60;96.20;;;;;;5082450;28;20196;-62
2024/04/06 06:36:21;;;;;;;10.07;1.88;;;26.70;95.30;;;;;;5080111;28;20304;-62
2024/04/06 06:38:49;;;;;;;3.58;1.95;;;26.80;94.60;;;;;;5080249;28;20288;-62
2024/04/06 06:41:14;;;;;;;6.93;1.70;;;26.90;94.10;;;;;;5083479;28;20638;-62
2024/04/06 06:43:41;;;;;;;4.22;1.40;;;27.10;93.60;;;;;;5083486;28;20231;-62
2024/04/06 06:46:07;;;;;;;2.40;1.40;;;27.30;92.50;;;;;;5080173;28;20197;-62
2024/04/06 06:48:34;;;;;;;2.55;1.50;;;27.20;92.80;;;;;;5079835;28;20586;-62
2024/04/06 06:51:02;;;;;;;3.50;1.40;;;26.90;92.30;;;;;;5081959;28;20221;-62
2024/04/06 06:53:29;;;;;;;3.55;1.50;;;26.40;92.70;;;;;;5083516;28;20199;-61
2024/04/06 06:55:54;;;;;;;3.70;2.45;;;25.80;93.30;;;;;;5081832;28;20220;-62
2024/04/06 06:58:21;;;;;;;5.00;1.33;;;25.30;93.90;;;;;;5079609;28;20618;-63
2024/04/06 07:00:47;;;;;;;6.05;1.30;;;25.00;94.20;;;;;;5080257;28;20208;-64
2024/04/06 07:03:14;;;;;;;2.47;1.40;;;24.60;94.70;;;;;;5083550;28;20644;-64
2024/04/06 07:05:40;;;;;;;2.53;1.25;;;24.30;95.00;;;;;;5082950;28;20201;-64
2024/04/06 07:08:08;;;;;;;2.33;1.38;;;24.40;95.60;;;;;;5080255;28;20258;-64
2024/04/06 07:10:38;;;;;;;2.80;1.20;;;25.00;95.00;;;;;;5080111;28;20564;-64
2024/04/06 07:13:05;;;;;;;9.18;1.67;;;25.80;93.70;;;;;;5082364;28;20220;-65
2024/04/06 07:15:31;;;;;;;2.85;2.00;;;26.70;92.80;;;;;;5083215;28;20226;-65
2024/04/06 07:17:58;;;;;;;3.50;1.38;;;27.40;91.30;;;;;;5081354;28;20282;-65
2024/04/06 07:20:24;;;;;;;4.85;2.00;;;27.30;90.60;;;;;;5079704;28;20283;-65
2024/04/06 07:22:50;;;;;;;3.97;1.90;;;26.60;92.00;;;;;;5079891;28;20750;-63
2024/04/06 07:25:19;;;;;;;4.97;2.75;;;26.40;93.10;;;;;;5082773;28;20203;-62
2024/04/06 07:27:45;;;;;;;4.43;2.92;;;26.30;94.30;;;;;;5082788;28;20219;-63
2024/04/06 07:30:12;;;;;;;10.95;3.95;;;26.30;95.00;;;;;;5071357;28;20601;-63
2024/04/06 07:32:37;;;;;;;5.10;1.90;;;26.90;94.80;;;;;;5079630;28;20231;-63
2024/04/06 07:35:05;;;;;;;4.88;2.00;;;27.90;93.10;;;;;;5081798;28;20204;-64
2024/04/06 07:37:31;;;;;;;3.83;1.67;;;28.60;91.70;;;;;;5083113;28;20272;-65
2024/04/06 07:39:58;;;;;;;5.68;2.13;;;28.50;91.40;;;;;;5081062;28;20200;-64
2024/04/06 07:42:25;;;;;;;3.13;2.40;;;28.10;91.80;;;;;;5079662;28;20221;-61
2024/04/06 07:44:51;;;;;;;4.60;2.10;;;27.50;92.00;;;;;;5080374;28;20213;-65
2024/04/06 07:47:17;;;;;;;7.97;2.78;;;26.90;92.30;;;;;;5082910;28;20201;-62
2024/04/06 07:49:45;;;;;;;4.15;2.22;;;26.70;92.80;;;;;;5082653;28;20205;-63
2024/04/06 07:52:10;;;;;;;3.17;2.05;;;26.50;93.20;;;;;;5079305;28;20229;-64
2024/04/06 07:54:37;;;;;;;5.60;3.28;;;26.30;93.40;;;;;;5079419;28;20219;-63
2024/04/06 07:57:05;;;;;;;3.80;2.42;;;26.80;93.30;;;;;;5081602;28;20229;-64
2024/04/06 07:59:33;;;;;;;6.03;2.30;;;27.60;91.80;;;;;;5082671;28;20204;-65
2024/04/06 08:01:59;;;;;;;6.28;1.77;;;28.20;90.90;;;;;;5081056;28;20242;-62
2024/04/06 08:04:27;;;;;;;4.82;2.10;;;28.90;90.80;;;;;;5079368;28;20196;-65
2024/04/06 08:06:53;;;;;;;4.88;1.92;;;29.20;88.60;;;;;;5080367;28;20254;-64
2024/04/06 08:09:20;;;;;;;4.78;2.10;;;29.60;88.10;;;;;;5082015;28;20248;-63
2024/04/06 08:11:45;;;;;;;5.60;2.22;;;29.80;85.50;;;;;;5082816;28;20224;-63
2024/04/06 08:14:12;;;;;;;6.00;2.45;;;28.90;87.10;;;;;;5079877;28;20199;-63
2024/04/06 08:16:41;;;;;;;39.67;16.90;;;28.10;89.60;;;;;;5079715;28;20229;-62
2024/04/06 08:19:07;;;;;;;6.10;2.20;;;27.40;90.90;;;;;;5085389;28;20201;-63
2024/04/06 08:21:33;;;;;;;3.28;2.00;;;26.60;91.60;;;;;;5086546;28;20307;-63
2024/04/06 08:24:00;;;;;;;5.68;2.53;;;25.50;93.10;;;;;;5084536;28;20616;-62
2024/04/06 08:26:25;;;;;;;3.65;2.17;;;24.80;93.90;;;;;;5083082;28;20270;-62
2024/04/06 08:28:52;;;;;;;9.75;3.33;;;24.50;93.30;;;;;;5082812;28;20623;-62
2024/04/06 08:31:18;;;;;;;3.10;1.70;;;24.10;93.20;;;;;;5085766;28;20224;-62
2024/04/06 08:33:46;;;;;;;4.13;2.40;;;24.10;93.50;;;;;;5086245;28;20210;-62
2024/04/06 08:36:12;;;;;;;2.88;1.83;;;24.20;94.50;;;;;;5082625;28;20315;-62
2024/04/06 08:38:38;;;;;;;5.53;2.10;;;24.40;93.80;;;;;;5082615;28;20612;-63
2024/04/06 08:41:09;;;;;;;5.07;1.88;;;24.50;93.70;;;;;;5084900;28;20291;-61
2024/04/06 08:43:36;;;;;;;6.53;2.53;;;24.40;93.30;;;;;;5086385;28;20201;-62
2024/04/06 08:46:04;;;;;;;1.25;0.88;;;24.30;93.80;;;;;;5083909;28;20426;-63
2024/04/06 08:48:31;;;;;;;5.07;1.90;;;24.50;91.60;;;;;;5081997;28;20212;-63
2024/04/06 08:51:01;;;;;;;2.13;1.13;;;24.70;90.80;;;;;;5083437;28;20250;-63
2024/04/06 08:53:28;;;;;;;3.33;1.77;;;24.80;88.60;;;;;;5085946;28;20204;-63
2024/04/06 08:55:56;;;;;;;8.15;4.13;;;25.00;86.60;;;;;;5084888;28;20247;-63
2024/04/06 08:58:21;;;;;;;2.88;1.50;;;24.90;86.90;;;;;;5082130;28;20208;-64
2024/04/06 09:00:49;;;;;;;6.15;1.67;;;25.00;86.00;;;;;;5082094;28;20220;-64
2024/04/06 09:03:14;;;;;;;8.52;2.33;;;25.00;85.10;;;;;;5073614;28;20217;-62
2024/04/06 09:05:44;;;;;;;32.60;11.25;;;25.00;88.50;;;;;;5081974;28;20269;-64
2024/04/06 09:08:15;;;;;;;24.52;10.07;;;25.00;90.70;;;;;;5084524;28;20201;-63
2024/04/06 09:10:42;;;;;;;19.73;7.07;;;24.90;89.60;;;;;;5085257;28;20290;-63
2024/04/06 09:13:08;;;;;;;18.90;7.22;;;25.00;86.60;;;;;;5082243;28;20315;-64
2024/04/06 09:15:36;;;;;;;12.13;3.60;;;24.80;86.20;;;;;;5081437;28;20647;-64
2024/04/06 09:18:02;;;;;;;8.82;4.28;;;24.80;86.30;;;;;;5083026;28;20205;-64
2024/04/06 09:20:29;;;;;;;9.23;4.45;;;24.80;87.60;;;;;;5085774;28;20200;-64
2024/04/06 09:22:56;;;;;;;3.40;1.70;;;24.80;87.60;;;;;;5084155;28;20228;-64
2024/04/06 09:25:24;;;;;;;4.57;2.38;;;24.90;85.90;;;;;;5081600;28;20288;-63
2024/04/06 09:27:50;;;;;;;6.50;3.15;;;24.80;87.80;;;;;;5081335;28;20319;-63
2024/04/06 09:30:19;;;;;;;5.93;3.42;;;24.80;87.20;;;;;;5084549;28;20270;-63
2024/04/06 09:32:47;;;;;;;2.50;1.48;;;24.80;87.80;;;;;;5084763;28;20846;-63
2024/04/06 09:35:14;;;;;;;4.82;2.85;;;24.80;86.70;;;;;;5081354;28;20204;-63
2024/04/06 09:37:41;;;;;;;7.30;2.15;;;24.70;87.20;;;;;;5081303;28;20761;-62
2024/04/06 09:40:09;;;;;;;6.30;2.75;;;24.60;85.60;;;;;;5083025;28;20206;-63
2024/04/06 09:42:37;;;;;;;5.05;2.75;;;24.70;86.90;;;;;;5084684;28;20294;-64
2024/04/06 09:45:06;;;;;;;5.50;3.08;;;24.80;85.40;;;;;;5082651;28;20207;-63
2024/04/06 09:47:33;;;;;;;5.22;3.10;;;24.80;84.70;;;;;;5081214;28;20582;-62
2024/04/06 09:50:00;;;;;;;4.60;2.22;;;24.80;84.40;;;;;;5081937;28;20611;-62
2024/04/06 09:52:26;;;;;;;3.25;1.70;;;24.80;84.90;;;;;;5113370;22;20285;-54
2024/04/06 09:54:54;;;;;;;2.08;1.27;;;24.90;83.90;;;;;;5092944;28;20254;-54
2024/04/06 09:57:21;;;;;;;4.57;2.20;;;24.90;84.90;;;;;;5092823;28;20277;-56
2024/04/06 09:59:59;;;;;;;2.03;1.30;;;25.00;85.20;;;;;;5092809;28;20200;-54
2024/04/06 10:02:25;;;;;;;4.97;1.50;;;25.10;83.20;;;;;;5085890;28;20219;-53
2024/04/06 10:04:56;;;;;;;2.78;1.98;;;25.10;82.90;;;;;;5092715;28;20646;-54
2024/04/06 10:07:26;;;;;;;3.28;1.60;;;25.10;82.00;;;;;;5092724;28;20235;-53
2024/04/06 10:10:00;;;;;;;5.55;2.05;;;25.20;81.80;;;;;;5092257;28;20200;-55
2024/04/06 10:12:36;;;;;;;4.65;2.40;;;25.30;81.40;;;;;;5092651;28;20216;-53
2024/04/06 10:15:08;;;;;;;3.75;1.38;;;25.30;80.60;;;;;;5092469;28;20227;-54
2024/04/06 10:17:41;;;;;;;2.15;1.23;;;25.30;76.70;;;;;;5092349;28;20599;-54
2024/04/06 10:20:10;;;;;;;3.55;1.38;;;25.30;75.70;;;;;;5092063;28;20596;-52
2024/04/06 10:22:43;;;;;;;3.08;1.45;;;25.40;74.40;;;;;;5092119;28;20228;-53
2024/04/06 10:25:11;;;;;;;2.33;1.25;;;25.40;75.60;;;;;;5092124;28;20202;-53
2024/04/06 10:27:38;;;;;;;9.30;1.88;;;25.50;74.60;;;;;;5092392;28;20196;-54
2024/04/06 10:30:07;;;;;;;2.75;1.58;;;25.40;74.80;;;;;;5091921;28;20582;-52
2024/04/06 10:32:33;;;;;;;3.10;1.25;;;25.50;74.80;;;;;;5092133;28;20216;-53
2024/04/06 10:35:00;;;;;;;1.35;1.05;;;25.50;73.60;;;;;;5091675;28;20218;-53
2024/04/06 10:37:26;;;;;;;4.13;1.60;;;25.50;71.60;;;;;;5092154;28;20224;-52
2024/04/06 10:39:53;;;;;;;4.35;1.20;;;25.60;69.10;;;;;;5091419;28;20603;-52
2024/04/06 10:42:24;;;;;;;2.08;1.10;;;25.70;69.40;;;;;;5091502;28;20281;-53
2024/04/06 10:44:51;;;;;;;2.50;1.10;;;25.80;68.60;;;;;;5091747;28;20198;-52
2024/04/06 10:47:18;;;;;;;2.75;1.42;;;25.90;68.80;;;;;;5083606;28;20579;-52
2024/04/06 10:49:46;;;;;;;1.98;1.00;;;26.00;68.40;;;;;;5091352;28;20682;-52
2024/04/06 10:52:12;;;;;;;1.90;1.52;;;26.10;66.90;;;;;;5091652;28;20288;-53
2024/04/06 10:54:39;;;;;;;1.27;0.98;;;26.20;67.10;;;;;;5091806;28;20200;-52
2024/04/06 10:57:05;;;;;;;1.92;0.77;;;26.30;67.90;;;;;;5091532;28;20319;-53
2024/04/06 10:59:32;;;;;;;2.30;1.17;;;26.30;67.60;;;;;;5091555;28;20249;-54
2024/04/06 11:01:58;;;;;;;1.92;1.00;;;26.40;67.50;;;;;;5091397;28;20228;-52
2024/04/06 11:04:26;;;;;;;1.30;1.00;;;26.50;67.40;;;;;;5091530;28;20203;-53
2024/04/06 11:06:52;;;;;;;3.15;1.17;;;26.60;67.30;;;;;;5091989;28;20231;-57
2024/04/06 11:09:18;;;;;;;1.73;1.30;;;26.60;67.50;;;;;;5091464;28;20678;-53
2024/04/06 11:11:45;;;;;;;3.97;0.98;;;26.70;67.00;;;;;;5091569;28;20228;-53
2024/04/06 11:14:12;;;;;;;2.25;1.23;;;26.70;67.50;;;;;;5091626;28;20692;-54
2024/04/06 11:16:41;;;;;;;5.63;1.50;;;26.80;66.60;;;;;;5091476;28;20220;-52
2024/04/06 11:19:08;;;;;;;3.88;1.83;;;26.90;67.00;;;;;;5090732;28;20271;-52
2024/04/06 11:21:35;;;;;;;4.10;1.75;;;26.90;67.30;;;;;;5091611;28;20204;-53
2024/04/06 11:24:02;;;;;;;2.08;1.42;;;27.00;66.70;;;;;;5091395;28;20706;-52
2024/04/06 11:26:29;;;;;;;2.20;1.48;;;27.00;66.70;;;;;;5091408;28;20204;-52
2024/04/06 11:28:55;;;;;;;4.50;2.17;;;27.20;66.60;;;;;;5091372;28;20222;-52
2024/04/06 11:31:21;;;;;;;2.85;1.65;;;27.10;65.60;;;;;;5091570;28;20207;-52
2024/04/06 11:33:48;;;;;;;4.03;2.85;;;27.20;64.70;;;;;;5091630;28;20670;-52
2024/04/06 11:36:14;;;;;;;2.90;1.30;;;27.30;65.60;;;;;;5091201;28;20204;-53
2024/04/06 11:38:42;;;;;;;1.25;0.80;;;27.40;64.50;;;;;;5091094;28;20208;-53
2024/04/06 11:41:08;;;;;;;2.42;0.82;;;27.40;63.50;;;;;;5091982;28;20212;-55
2024/04/06 11:43:34;;;;;;;2.65;1.10;;;27.50;60.90;;;;;;5091522;28;20648;-52
2024/04/06 11:46:00;;;;;;;2.30;1.02;;;27.50;60.10;;;;;;5091601;28;20261;-54
2024/04/06 11:48:27;;;;;;;2.67;2.00;;;27.60;60.00;;;;;;5090913;28;20218;-55
2024/04/06 11:50:52;;;;;;;3.50;1.70;;;27.60;62.20;;;;;;5091399;28;20257;-52
2024/04/06 11:53:19;;;;;;;20.60;16.05;;;27.70;61.70;;;;;;5085921;28;20644;-54
2024/04/06 11:55:46;;;;;;;2.47;1.50;;;27.60;59.50;;;;;;5095137;28;20304;-52
2024/04/06 11:58:13;;;;;;;3.97;1.40;;;27.60;61.00;;;;;;5094559;28;20227;-54
2024/04/06 12:00:39;;;;;;;4.03;1.85;;;27.60;62.20;;;;;;5095133;28;20536;-53
2024/04/06 12:03:06;;;;;;;2.03;1.15;;;27.70;61.40;;;;;;5095021;28;20697;-54
2024/04/06 12:05:31;;;;;;;1.33;1.00;;;27.70;59.30;;;;;;5095132;28;20238;-53
2024/04/06 12:07:58;;;;;;;4.00;1.50;;;27.70;57.70;;;;;;5094475;28;20200;-53
2024/04/06 12:10:24;;;;;;;2.42;0.98;;;27.60;56.70;;;;;;5094448;28;20262;-53
2024/04/06 12:12:52;;;;;;;2.15;1.00;;;27.60;57.10;;;;;;5094550;28;20220;-52
2024/04/06 12:15:18;;;;;;;1.25;0.93;;;27.50;57.10;;;;;;5094890;28;20204;-53
2024/04/06 12:17:45;;;;;;;0.73;0.73;;;27.50;57.30;;;;;;5094454;28;20465;-53
2024/04/06 12:20:11;;;;;;;4.45;1.50;;;27.30;57.50;;;;;;5094317;28;20648;-53
2024/04/06 12:22:38;;;;;;;1.58;1.00;;;27.20;55.10;;;;;;5094495;28;20244;-53
2024/04/06 12:25:06;;;;;;;1.33;1.05;;;27.10;55.90;;;;;;5093971;28;20204;-53
2024/04/06 12:27:33;;;;;;;2.55;0.90;;;27.10;57.70;;;;;;5094480;28;20201;-54
2024/04/06 12:30:00;;;;;;;1.55;1.13;;;27.20;57.70;;;;;;5093155;28;20214;-56
2024/04/06 12:32:27;;;;;;;2.05;1.35;;;27.30;57.20;;;;;;5093079;28;20693;-52
2024/04/06 12:34:53;;;;;;;1.92;0.80;;;27.60;56.90;;;;;;5092223;28;20597;-55
2024/04/06 12:37:19;;;;;;;0.88;0.57;;;27.90;56.10;;;;;;5093907;28;20223;-54
2024/04/06 12:39:45;;;;;;;1.88;1.10;;;28.10;54.70;;;;;;5093842;28;20208;-54
2024/04/06 12:42:12;;;;;;;1.88;1.13;;;28.30;55.80;;;;;;5093748;28;20230;-54